Time;durP1;ratioP1;P1;durP2;ratioP2;P2;SDS_P1;SDS_P2;PMS_P1;PMS_P2;Temp;Humidity;BMP_temperature;BMP_pressure;BME280_temperature;BME280_humidity;BME280_pressure;Samples;Min_cycle;Max_cycle;Signal;HPM_P1;HPM_P2
2023/06/14 00:00:20;;;;;;;11.55;3.22;;;;;;;;;;5014231;28;20597;-67
2023/06/14 00:02:46;;;;;;;11.70;3.17;;;;;;;;;;5007383;28;20167;-67
2023/06/14 00:05:13;;;;;;;12.18;3.22;;;;;;;;;;5014187;28;20033;-68
2023/06/14 00:07:43;;;;;;;10.90;3.40;;;;;;;;;;5001554;28;20060;-66
2023/06/14 00:10:10;;;;;;;13.00;3.78;;;;;;;;;;4995197;28;20070;-67
2023/06/14 00:12:36;;;;;;;13.40;4.35;;;;;;;;;;5017197;28;20443;-67
2023/06/14 00:15:03;;;;;;;13.52;4.10;;;;;;;;;;5014871;28;20025;-67
2023/06/14 00:17:30;;;;;;;15.95;4.22;;;;;;;;;;5017429;28;20478;-67
2023/06/14 00:19:59;;;;;;;11.60;3.60;;;;;;;;;;5013873;28;20037;-68
2023/06/14 00:22:28;;;;;;;17.00;4.78;;;;;;;;;;5014158;28;20198;-68
2023/06/14 00:24:54;;;;;;;14.65;4.53;;;;;;;;;;5018311;28;20102;-68
2023/06/14 00:27:20;;;;;;;13.07;4.20;;;;;;;;;;5001353;28;20854;-68
2023/06/14 00:29:46;;;;;;;13.35;4.70;;;;;;;;;;5018212;28;20357;-68
2023/06/14 00:32:13;;;;;;;13.40;4.15;;;;;;;;;;5012325;28;20040;-68
2023/06/14 00:34:39;;;;;;;15.82;4.90;;;;;;;;;;5015337;28;20331;-67
2023/06/14 00:37:05;;;;;;;13.70;4.30;;;;;;;;;;5012229;28;20040;-67
2023/06/14 00:39:31;;;;;;;12.98;4.13;;;;;;;;;;5015822;28;20048;-69
2023/06/14 00:41:59;;;;;;;13.70;4.75;;;;;;;;;;5000164;28;20124;-66
2023/06/14 00:44:25;;;;;;;14.77;4.60;;;;;;;;;;4996085;28;20616;-68
2023/06/14 00:46:51;;;;;;;12.02;4.13;;;;;;;;;;5001892;28;20474;-67
2023/06/14 00:49:18;;;;;;;12.90;4.28;;;;;;;;;;5002525;28;20168;-68
2023/06/14 00:51:44;;;;;;;11.63;3.70;;;;;;;;;;4997170;28;20028;-67
2023/06/14 00:54:10;;;;;;;12.88;3.95;;;;;;;;;;5013530;28;20139;-67
2023/06/14 00:56:37;;;;;;;11.93;3.83;;;;;;;;;;4999358;28;20040;-67
2023/06/14 00:59:03;;;;;;;11.88;3.85;;;;;;;;;;5008624;28;20006;-68
2023/06/14 01:01:32;;;;;;;12.85;4.40;;;;;;;;;;5000883;28;20550;-67
2023/06/14 01:03:58;;;;;;;13.35;4.47;;;;;;;;;;4992355;28;20387;-68
2023/06/14 01:06:42;;;;;;;11.60;4.20;;;;;;;;;;4998770;28;20057;-67
2023/06/14 01:09:11;;;;;;;14.80;4.47;;;;;;;;;;5011640;28;20087;-68
2023/06/14 01:11:46;;;;;;;11.35;3.80;;;;;;;;;;5015205;28;20119;-68
2023/06/14 01:14:13;;;;;;;14.82;4.40;;;;;;;;;;5006097;28;20483;-68
2023/06/14 01:16:40;;;;;;;12.27;3.40;;;;;;;;;;5015083;28;20321;-68
2023/06/14 01:19:12;;;;;;;12.45;3.83;;;;;;;;;;5016599;28;20025;-68
2023/06/14 01:21:41;;;;;;;10.80;3.35;;;;;;;;;;5015985;28;20287;-67
2023/06/14 01:24:08;;;;;;;11.45;3.47;;;;;;;;;;5014871;28;20654;-68
2023/06/14 01:26:35;;;;;;;14.52;4.00;;;;;;;;;;4998366;28;20061;-68
2023/06/14 01:29:01;;;;;;;13.70;4.03;;;;;;;;;;5011154;28;20479;-68
2023/06/14 01:31:29;;;;;;;12.57;4.00;;;;;;;;;;4994646;28;20029;-67
2023/06/14 01:33:55;;;;;;;10.60;4.05;;;;;;;;;;5011220;28;20711;-67
2023/06/14 01:36:23;;;;;;;11.55;4.32;;;;;;;;;;5016436;28;20025;-67
2023/06/14 01:38:50;;;;;;;14.63;4.38;;;;;;;;;;4999502;28;20309;-68
2023/06/14 01:41:18;;;;;;;11.57;4.25;;;;;;;;;;5012040;28;20029;-68
2023/06/14 01:43:45;;;;;;;12.18;3.78;;;;;;;;;;4998749;28;20090;-68
2023/06/14 01:46:12;;;;;;;11.82;3.72;;;;;;;;;;4991991;28;20479;-68
2023/06/14 01:48:38;;;;;;;11.13;4.25;;;;;;;;;;5014639;28;20048;-68
2023/06/14 01:51:04;;;;;;;13.02;3.63;;;;;;;;;;5010513;28;20032;-67
2023/06/14 01:53:30;;;;;;;11.50;4.05;;;;;;;;;;5015907;28;20415;-68
2023/06/14 01:55:57;;;;;;;10.50;3.85;;;;;;;;;;5012199;28;20032;-66
2023/06/14 01:58:23;;;;;;;11.07;3.97;;;;;;;;;;5014998;28;20202;-69
2023/06/14 02:00:51;;;;;;;14.55;4.28;;;;;;;;;;5014146;28;20058;-67
2023/06/14 02:03:19;;;;;;;12.68;3.85;;;;;;;;;;4992029;28;20045;-68
2023/06/14 02:05:45;;;;;;;12.98;4.15;;;;;;;;;;5016720;28;20032;-67
2023/06/14 02:08:11;;;;;;;13.25;3.90;;;;;;;;;;5011279;28;20328;-68
2023/06/14 02:10:37;;;;;;;11.77;3.40;;;;;;;;;;5016968;28;20020;-68
2023/06/14 02:13:03;;;;;;;11.00;3.38;;;;;;;;;;5014257;28;20036;-67
2023/06/14 02:15:33;;;;;;;13.15;3.65;;;;;;;;;;5016418;28;20352;-68
2023/06/14 02:18:00;;;;;;;11.50;3.22;;;;;;;;;;4990926;28;20090;-68
2023/06/14 02:20:27;;;;;;;14.38;4.00;;;;;;;;;;5018081;28;20122;-68
2023/06/14 02:22:53;;;;;;;12.30;3.67;;;;;;;;;;5016896;28;20556;-68
2023/06/14 02:25:19;;;;;;;12.80;3.72;;;;;;;;;;4997963;28;20032;-69
2023/06/14 02:27:45;;;;;;;10.63;3.72;;;;;;;;;;5016079;28;20031;-68
2023/06/14 02:30:12;;;;;;;12.25;3.78;;;;;;;;;;4995943;28;20383;-68
2023/06/14 02:32:38;;;;;;;10.05;3.67;;;;;;;;;;5019598;28;20064;-66
2023/06/14 02:35:04;;;;;;;9.73;3.17;;;;;;;;;;5014575;28;20033;-66
2023/06/14 02:37:30;;;;;;;10.90;3.75;;;;;;;;;;5013669;28;20037;-67
2023/06/14 02:39:57;;;;;;;10.75;3.88;;;;;;;;;;5014017;28;20319;-68
2023/06/14 02:42:23;;;;;;;10.60;3.60;;;;;;;;;;5018513;28;20052;-68
2023/06/14 02:44:51;;;;;;;10.80;3.55;;;;;;;;;;5010469;28;20033;-68
2023/06/14 02:47:18;;;;;;;13.00;3.50;;;;;;;;;;5012249;28;20068;-68
2023/06/14 02:49:46;;;;;;;11.18;3.47;;;;;;;;;;4997547;28;20051;-68
2023/06/14 02:52:12;;;;;;;11.48;3.88;;;;;;;;;;5012658;28;20064;-68
2023/06/14 02:54:38;;;;;;;11.15;3.75;;;;;;;;;;5013774;28;20031;-67
2023/06/14 02:57:06;;;;;;;10.38;3.45;;;;;;;;;;5011814;28;20041;-67
2023/06/14 02:59:32;;;;;;;10.77;3.45;;;;;;;;;;5015107;28;20032;-67
2023/06/14 03:01:59;;;;;;;10.65;3.97;;;;;;;;;;5013091;28;20044;-68
2023/06/14 03:04:25;;;;;;;11.10;3.42;;;;;;;;;;5014556;28;20346;-68
2023/06/14 03:06:53;;;;;;;11.50;3.67;;;;;;;;;;5016382;28;20055;-68
2023/06/14 03:09:20;;;;;;;11.23;3.67;;;;;;;;;;4995112;28;20042;-68
2023/06/14 03:11:46;;;;;;;11.70;3.72;;;;;;;;;;5000845;28;20037;-68
2023/06/14 03:14:13;;;;;;;15.02;4.57;;;;;;;;;;4996607;28;20044;-68
2023/06/14 03:16:41;;;;;;;11.65;3.90;;;;;;;;;;5015788;28;20037;-68
2023/06/14 03:19:07;;;;;;;12.75;3.70;;;;;;;;;;5011311;28;20470;-68
2023/06/14 03:21:34;;;;;;;11.00;3.33;;;;;;;;;;5017164;28;20742;-68
2023/06/14 03:24:03;;;;;;;10.45;3.42;;;;;;;;;;4992910;28;20122;-68
2023/06/14 03:26:30;;;;;;;10.48;2.90;;;;;;;;;;5002690;28;20430;-67
2023/06/14 03:28:56;;;;;;;9.43;2.55;;;;;;;;;;5011827;28;20347;-69
2023/06/14 03:31:23;;;;;;;9.02;3.10;;;;;;;;;;5015913;28;20159;-68
2023/06/14 03:33:49;;;;;;;10.23;2.90;;;;;;;;;;5015463;28;20842;-68
2023/06/14 03:36:17;;;;;;;8.73;3.05;;;;;;;;;;5013513;28;20036;-68
2023/06/14 03:38:43;;;;;;;8.15;2.53;;;;;;;;;;5020606;28;20029;-68
2023/06/14 03:41:09;;;;;;;7.80;2.22;;;;;;;;;;5016646;28;20029;-67
2023/06/14 03:43:36;;;;;;;6.22;2.00;;;;;;;;;;5020871;28;20333;-68
2023/06/14 03:46:02;;;;;;;7.75;2.10;;;;;;;;;;5017517;28;20061;-68
2023/06/14 03:48:28;;;;;;;6.40;2.25;;;;;;;;;;5018882;28;20455;-68
2023/06/14 03:50:54;;;;;;;8.10;2.47;;;;;;;;;;5020518;28;20078;-67
2023/06/14 03:53:23;;;;;;;7.57;2.20;;;;;;;;;;5020241;28;20290;-68
2023/06/14 03:55:49;;;;;;;7.85;2.20;;;;;;;;;;5003224;28;20521;-68
2023/06/14 03:58:16;;;;;;;8.20;2.55;;;;;;;;;;5017948;28;20474;-67
2023/06/14 04:00:43;;;;;;;7.65;2.30;;;;;;;;;;5018865;28;20092;-68
2023/06/14 04:03:10;;;;;;;7.03;2.13;;;;;;;;;;4992764;28;20045;-67
2023/06/14 04:05:37;;;;;;;7.57;2.33;;;;;;;;;;5012587;28;20488;-67
2023/06/14 04:08:04;;;;;;;7.60;2.10;;;;;;;;;;4995284;28;20030;-67
2023/06/14 04:10:30;;;;;;;6.32;2.17;;;;;;;;;;5000462;28;20715;-68
2023/06/14 04:12:56;;;;;;;7.22;2.08;;;;;;;;;;4993988;28;20124;-68
2023/06/14 04:15:22;;;;;;;8.45;2.53;;;;;;;;;;5000251;28;20056;-68
2023/06/14 04:17:48;;;;;;;6.13;2.15;;;;;;;;;;4998019;28;20065;-68
2023/06/14 04:20:15;;;;;;;9.07;2.58;;;;;;;;;;4997504;28;23297;-68
2023/06/14 04:22:43;;;;;;;7.45;2.47;;;;;;;;;;5001323;28;20033;-68
2023/06/14 04:25:09;;;;;;;8.00;2.00;;;;;;;;;;4997096;28;20029;-67
2023/06/14 04:27:36;;;;;;;6.75;2.05;;;;;;;;;;4998489;28;20026;-67
2023/06/14 04:30:02;;;;;;;7.75;2.20;;;;;;;;;;4991466;28;20083;-67
2023/06/14 04:32:29;;;;;;;8.25;2.55;;;;;;;;;;4999704;28;20251;-67
2023/06/14 04:34:59;;;;;;;8.65;2.70;;;;;;;;;;4995512;28;20044;-68
2023/06/14 04:37:30;;;;;;;8.30;2.63;;;;;;;;;;4998412;28;20061;-67
2023/06/14 04:39:56;;;;;;;10.07;3.03;;;;;;;;;;4993363;28;20033;-67
2023/06/14 04:42:25;;;;;;;9.20;3.30;;;;;;;;;;5000334;28;20146;-69
2023/06/14 04:44:55;;;;;;;8.07;2.70;;;;;;;;;;4998205;28;20038;-68
2023/06/14 04:47:21;;;;;;;9.60;2.88;;;;;;;;;;4999251;28;20435;-68
2023/06/14 04:49:47;;;;;;;9.60;2.88;;;;;;;;;;4995881;28;20064;-68
2023/06/14 04:52:14;;;;;;;9.90;3.05;;;;;;;;;;4994859;28;20030;-67
2023/06/14 04:54:43;;;;;;;10.77;3.00;;;;;;;;;;4997097;28;20056;-67
2023/06/14 04:57:14;;;;;;;11.27;2.80;;;;;;;;;;4994371;28;20723;-68
2023/06/14 04:59:40;;;;;;;9.15;2.63;;;;;;;;;;4994772;28;20442;-68
2023/06/14 05:02:08;;;;;;;7.38;2.60;;;;;;;;;;4994904;28;20510;-68
2023/06/14 05:04:39;;;;;;;7.65;2.45;;;;;;;;;;4995339;28;20680;-68
2023/06/14 05:07:06;;;;;;;7.95;2.50;;;;;;;;;;5009407;28;20045;-68
2023/06/14 05:09:33;;;;;;;5.47;1.83;;;;;;;;;;4999350;28;20083;-68
2023/06/14 05:12:00;;;;;;;7.82;2.10;;;;;;;;;;4993889;28;20029;-68
2023/06/14 05:14:26;;;;;;;7.95;2.40;;;;;;;;;;4995032;28;20099;-68
2023/06/14 05:16:53;;;;;;;8.23;2.50;;;;;;;;;;4998482;28;20088;-67
2023/06/14 05:19:20;;;;;;;11.15;2.42;;;;;;;;;;4994726;28;20759;-67
2023/06/14 05:21:47;;;;;;;6.88;2.05;;;;;;;;;;4996298;28;20041;-68
2023/06/14 05:24:13;;;;;;;7.13;2.15;;;;;;;;;;4995959;28;20025;-67
2023/06/14 05:26:40;;;;;;;6.97;2.33;;;;;;;;;;4999403;28;20090;-66
2023/06/14 05:29:06;;;;;;;6.53;2.05;;;;;;;;;;4992465;28;20313;-68
2023/06/14 05:31:32;;;;;;;6.55;2.03;;;;;;;;;;4998365;28;20035;-70
2023/06/14 05:33:59;;;;;;;6.05;2.25;;;;;;;;;;4991943;28;21014;-67
2023/06/14 05:36:25;;;;;;;6.03;1.95;;;;;;;;;;4998625;28;20034;-67
2023/06/14 05:38:57;;;;;;;6.97;2.15;;;;;;;;;;4995418;28;20034;-68
2023/06/14 05:41:23;;;;;;;5.53;2.00;;;;;;;;;;4997181;28;20434;-68
2023/06/14 05:43:50;;;;;;;7.43;2.25;;;;;;;;;;4996054;28;20778;-68
2023/06/14 05:46:21;;;;;;;7.47;2.10;;;;;;;;;;4990165;28;20479;-68
2023/06/14 05:48:47;;;;;;;7.00;2.20;;;;;;;;;;4996483;28;20056;-68
2023/06/14 05:51:14;;;;;;;6.95;2.40;;;;;;;;;;4993685;28;20589;-68
2023/06/14 05:53:40;;;;;;;8.70;2.28;;;;;;;;;;4997604;28;20071;-68
2023/06/14 05:56:06;;;;;;;8.85;2.60;;;;;;;;;;4993238;28;20029;-71
2023/06/14 05:58:32;;;;;;;8.13;2.80;;;;;;;;;;4997466;28;20148;-69
2023/06/14 06:00:59;;;;;;;9.30;3.05;;;;;;;;;;4993655;28;20025;-69
2023/06/14 06:03:25;;;;;;;11.20;3.05;;;;;;;;;;5014148;28;20068;-69
2023/06/14 06:05:51;;;;;;;8.75;3.25;;;;;;;;;;5017948;28;20085;-69
2023/06/14 06:08:17;;;;;;;7.63;2.70;;;;;;;;;;4998671;28;20033;-67
2023/06/14 06:10:43;;;;;;;7.85;2.70;;;;;;;;;;5017476;28;20029;-69
2023/06/14 06:13:09;;;;;;;6.53;2.10;;;;;;;;;;5013786;28;20024;-69
2023/06/14 06:15:36;;;;;;;7.57;2.35;;;;;;;;;;5017026;28;20037;-67
2023/06/14 06:18:02;;;;;;;8.32;2.40;;;;;;;;;;5012829;28;20056;-68
2023/06/14 06:20:31;;;;;;;8.43;2.20;;;;;;;;;;5018788;28;20044;-67
2023/06/14 06:22:58;;;;;;;7.00;2.47;;;;;;;;;;4996006;28;20204;-68
2023/06/14 06:25:25;;;;;;;6.82;2.22;;;;;;;;;;5019040;28;20112;-67
2023/06/14 06:27:52;;;;;;;7.25;2.40;;;;;;;;;;4995840;28;20467;-67
2023/06/14 06:30:19;;;;;;;7.60;2.47;;;;;;;;;;5012492;28;20036;-68
2023/06/14 06:32:45;;;;;;;6.93;2.00;;;;;;;;;;5015209;28;20087;-68
2023/06/14 06:35:12;;;;;;;7.00;2.40;;;;;;;;;;4999452;28;20699;-68
2023/06/14 06:37:39;;;;;;;6.05;2.30;;;;;;;;;;5017685;28;20029;-67
2023/06/14 06:40:05;;;;;;;6.45;1.90;;;;;;;;;;5014181;28;20128;-68
2023/06/14 06:42:32;;;;;;;7.22;2.00;;;;;;;;;;5015736;28;20497;-68
2023/06/14 06:44:58;;;;;;;7.15;2.00;;;;;;;;;;4997473;28;20040;-68
2023/06/14 06:47:25;;;;;;;5.80;1.88;;;;;;;;;;5017348;28;20625;-67
2023/06/14 06:49:51;;;;;;;10.25;2.28;;;;;;;;;;5014724;28;20061;-67
2023/06/14 06:52:17;;;;;;;5.85;2.00;;;;;;;;;;5011360;28;20028;-68
2023/06/14 06:54:43;;;;;;;6.40;2.58;;;;;;;;;;5012903;28;20123;-68
2023/06/14 06:57:10;;;;;;;7.57;2.40;;;;;;;;;;5012891;28;21641;-68
2023/06/14 06:59:37;;;;;;;6.82;2.10;;;;;;;;;;5018376;28;20347;-68
2023/06/14 07:02:03;;;;;;;5.00;1.95;;;;;;;;;;5010686;28;20282;-68
2023/06/14 07:04:29;;;;;;;6.20;2.00;;;;;;;;;;5015072;28;21835;-68
2023/06/14 07:06:55;;;;;;;6.45;2.10;;;;;;;;;;5014192;28;20033;-68
2023/06/14 07:09:22;;;;;;;5.13;1.83;;;;;;;;;;5016746;28;20617;-69
2023/06/14 07:11:48;;;;;;;8.60;2.00;;;;;;;;;;5002337;28;20032;-68
2023/06/14 07:14:15;;;;;;;7.38;2.05;;;;;;;;;;4992651;28;21790;-68
2023/06/14 07:16:41;;;;;;;8.68;1.73;;;;;;;;;;5016779;28;20041;-66
2023/06/14 07:19:08;;;;;;;4.95;1.85;;;;;;;;;;5012912;28;20095;-68
2023/06/14 07:21:37;;;;;;;7.72;2.05;;;;;;;;;;5016925;28;20408;-67
2023/06/14 07:24:03;;;;;;;5.75;2.00;;;;;;;;;;5015034;28;20426;-68
2023/06/14 07:26:29;;;;;;;7.97;2.60;;;;;;;;;;5001455;28;20558;-68
2023/06/14 07:28:56;;;;;;;7.25;2.20;;;;;;;;;;5012075;28;20033;-68
2023/06/14 07:31:22;;;;;;;6.78;2.30;;;;;;;;;;5016241;28;20053;-68
2023/06/14 07:33:48;;;;;;;6.40;2.13;;;;;;;;;;5001658;28;20037;-68
2023/06/14 07:36:14;;;;;;;9.25;2.22;;;;;;;;;;5013792;28;20102;-68
2023/06/14 07:38:40;;;;;;;6.30;2.15;;;;;;;;;;5017649;28;21640;-68
2023/06/14 07:41:07;;;;;;;7.03;2.35;;;;;;;;;;4996684;28;20056;-68
2023/06/14 07:43:33;;;;;;;7.45;2.75;;;;;;;;;;5015216;28;20048;-68
2023/06/14 07:45:59;;;;;;;9.98;3.03;;;;;;;;;;5011013;28;20102;-68
2023/06/14 07:48:25;;;;;;;6.72;2.40;;;;;;;;;;5014641;28;20036;-68
2023/06/14 07:50:51;;;;;;;6.50;2.22;;;;;;;;;;5016154;28;20025;-68
2023/06/14 07:53:17;;;;;;;6.63;1.95;;;;;;;;;;5011178;28;20199;-67
2023/06/14 07:55:43;;;;;;;9.00;2.45;;;;;;;;;;5012554;28;20139;-67
2023/06/14 07:58:10;;;;;;;12.15;2.15;;;;;;;;;;4994852;28;20029;-67
2023/06/14 08:00:36;;;;;;;12.07;2.70;;;;;;;;;;5001035;28;20025;-68
2023/06/14 08:03:03;;;;;;;9.45;1.88;;;;;;;;;;4996222;28;20053;-67
2023/06/14 08:05:30;;;;;;;6.35;1.65;;;;;;;;;;5018986;28;20418;-68
2023/06/14 08:07:56;;;;;;;7.28;1.70;;;;;;;;;;4995983;28;20056;-68
2023/06/14 08:10:23;;;;;;;11.40;2.63;;;;;;;;;;5015028;28;20048;-68
2023/06/14 08:12:52;;;;;;;9.85;2.97;;;;;;;;;;5013427;28;20657;-68
2023/06/14 08:15:18;;;;;;;7.30;2.10;;;;;;;;;;5013316;28;20055;-68
2023/06/14 08:17:45;;;;;;;11.23;2.30;;;;;;;;;;5017385;28;20037;-69
2023/06/14 08:20:11;;;;;;;8.73;2.45;;;;;;;;;;5011794;28;20037;-69
2023/06/14 08:22:37;;;;;;;7.18;1.90;;;;;;;;;;5001870;28;20404;-69
2023/06/14 08:25:04;;;;;;;6.93;2.00;;;;;;;;;;5014179;28;20399;-68
2023/06/14 08:27:30;;;;;;;6.38;2.38;;;;;;;;;;5019594;28;20468;-68
2023/06/14 08:29:57;;;;;;;6.45;2.05;;;;;;;;;;4999895;28;20179;-69
2023/06/14 08:32:23;;;;;;;7.43;2.33;;;;;;;;;;5004260;28;20291;-69
2023/06/14 08:34:49;;;;;;;4.82;1.80;;;;;;;;;;5003374;28;20038;-68
2023/06/14 08:37:15;;;;;;;6.50;2.00;;;;;;;;;;5017005;28;21287;-69
2023/06/14 08:39:43;;;;;;;8.18;2.25;;;;;;;;;;4997438;28;21400;-68
2023/06/14 08:42:10;;;;;;;5.70;1.70;;;;;;;;;;5012564;28;20052;-68
2023/06/14 08:44:36;;;;;;;6.13;1.90;;;;;;;;;;4999766;28;20033;-69
2023/06/14 08:47:05;;;;;;;7.65;2.00;;;;;;;;;;5015545;28;20037;-69
2023/06/14 08:49:32;;;;;;;6.13;1.83;;;;;;;;;;5019493;28;20024;-69
2023/06/14 08:51:58;;;;;;;7.68;1.80;;;;;;;;;;5002550;28;20144;-69
2023/06/14 08:54:27;;;;;;;6.32;1.85;;;;;;;;;;5004137;28;20024;-69
2023/06/14 08:56:57;;;;;;;6.90;1.77;;;;;;;;;;5017127;28;20116;-71
2023/06/14 08:59:25;;;;;;;7.28;1.92;;;;;;;;;;5003980;28;20033;-68
2023/06/14 09:01:52;;;;;;;6.05;1.85;;;;;;;;;;5015934;28;20567;-67
2023/06/14 09:04:22;;;;;;;6.05;2.10;;;;;;;;;;5003737;28;20420;-68
2023/06/14 09:06:52;;;;;;;7.35;2.47;;;;;;;;;;5001249;28;20028;-70
2023/06/14 09:09:25;;;;;;;4.50;1.73;;;;;;;;;;5012948;28;20479;-68
2023/06/14 09:11:51;;;;;;;5.47;1.55;;;;;;;;;;5020068;28;20017;-69
2023/06/14 09:14:22;;;;;;;6.47;2.00;;;;;;;;;;5012023;28;20561;-68
2023/06/14 09:16:48;;;;;;;6.15;1.73;;;;;;;;;;5017082;28;20050;-69
2023/06/14 09:19:26;;;;;;;6.05;1.70;;;;;;;;;;5014343;28;20210;-68
2023/06/14 09:21:53;;;;;;;4.97;1.65;;;;;;;;;;5019541;28;20033;-69
2023/06/14 09:24:19;;;;;;;4.95;1.40;;;;;;;;;;4997492;28;20303;-69
2023/06/14 09:26:49;;;;;;;5.45;1.65;;;;;;;;;;5016833;28;20132;-69
2023/06/14 09:29:17;;;;;;;5.28;1.70;;;;;;;;;;5013825;28;20084;-69
2023/06/14 09:31:43;;;;;;;6.28;1.73;;;;;;;;;;5015273;28;20029;-70
2023/06/14 09:34:09;;;;;;;7.32;1.95;;;;;;;;;;4995041;28;20048;-68
2023/06/14 09:36:36;;;;;;;8.10;1.90;;;;;;;;;;5000636;28;20119;-69
2023/06/14 09:39:06;;;;;;;6.60;2.03;;;;;;;;;;4998803;28;20080;-68
2023/06/14 09:41:33;;;;;;;8.80;2.03;;;;;;;;;;5000704;28;20033;-68
2023/06/14 09:44:03;;;;;;;5.18;1.67;;;;;;;;;;4994234;28;20025;-69
2023/06/14 09:46:29;;;;;;;7.75;1.95;;;;;;;;;;5010910;28;20112;-69
2023/06/14 09:49:00;;;;;;;5.95;1.52;;;;;;;;;;5014204;28;20459;-70
2023/06/14 09:51:27;;;;;;;6.70;1.55;;;;;;;;;;5001982;28;20021;-69
2023/06/14 09:53:53;;;;;;;7.03;1.80;;;;;;;;;;5016034;28;20345;-69
2023/06/14 09:56:22;;;;;;;6.05;1.50;;;;;;;;;;5013605;28;20025;-69
2023/06/14 09:58:49;;;;;;;6.60;1.80;;;;;;;;;;5015085;28;20033;-70
2023/06/14 10:01:16;;;;;;;5.47;1.67;;;;;;;;;;5009274;28;20110;-69
2023/06/14 10:03:43;;;;;;;7.75;1.75;;;;;;;;;;4996038;28;20075;-69
2023/06/14 10:06:09;;;;;;;7.07;1.63;;;;;;;;;;4986948;28;20037;-69
2023/06/14 10:08:36;;;;;;;7.72;1.88;;;;;;;;;;4995913;28;20668;-69
2023/06/14 10:11:03;;;;;;;5.40;1.60;;;;;;;;;;4994106;28;20051;-68
2023/06/14 10:13:33;;;;;;;6.75;1.92;;;;;;;;;;4994545;28;20029;-69
2023/06/14 10:15:59;;;;;;;6.03;1.75;;;;;;;;;;4993058;28;20049;-69
2023/06/14 10:18:48;;;;;;;6.10;1.90;;;;;;;;;;4997629;28;20379;-69
2023/06/14 10:21:14;;;;;;;8.02;1.60;;;;;;;;;;4994521;28;20038;-69
2023/06/14 10:23:42;;;;;;;6.28;1.75;;;;;;;;;;4993598;28;20558;-69
2023/06/14 10:26:09;;;;;;;6.85;1.63;;;;;;;;;;4994034;28;20053;-69
2023/06/14 10:28:38;;;;;;;7.63;1.65;;;;;;;;;;4993530;28;20183;-69
2023/06/14 10:31:04;;;;;;;6.95;1.60;;;;;;;;;;4988052;28;20034;-69
2023/06/14 10:33:30;;;;;;;12.02;1.88;;;;;;;;;;4997455;28;20245;-69
2023/06/14 10:36:09;;;;;;;7.25;1.80;;;;;;;;;;4991264;28;20037;-70
2023/06/14 10:38:37;;;;;;;6.45;1.90;;;;;;;;;;4995196;28;20157;-69
2023/06/14 10:41:04;;;;;;;8.90;1.58;;;;;;;;;;4993359;28;20041;-68
2023/06/14 10:43:30;;;;;;;6.95;1.67;;;;;;;;;;4994534;28;20438;-69
2023/06/14 10:46:16;;;;;;;6.45;1.58;;;;;;;;;;4992701;28;20539;-68
2023/06/14 10:48:43;;;;;;;;;;;;;;;;;;4995406;28;20072;-69
2023/06/14 10:51:23;;;;;;;5.40;1.40;;;;;;;;;;4995569;28;19928;-69
2023/06/14 10:53:49;;;;;;;9.68;1.50;;;;;;;;;;4995713;28;20177;-69
2023/06/14 10:56:26;;;;;;;4.55;1.45;;;;;;;;;;4991790;28;20037;-69
2023/06/14 10:58:52;;;;;;;7.53;1.75;;;;;;;;;;4995316;28;20431;-69
2023/06/14 11:01:33;;;;;;;6.18;1.52;;;;;;;;;;4995424;28;20033;-69
2023/06/14 11:04:07;;;;;;;5.18;1.45;;;;;;;;;;4993519;28;20061;-69
2023/06/14 11:06:45;;;;;;;7.18;1.50;;;;;;;;;;4999346;28;20048;-68
2023/06/14 11:09:34;;;;;;;5.70;1.45;;;;;;;;;;4992677;28;20033;-69
2023/06/14 11:12:01;;;;;;;5.60;1.48;;;;;;;;;;4993948;28;20049;-68
2023/06/14 11:14:30;;;;;;;5.35;1.50;;;;;;;;;;4995735;28;20036;-69
2023/06/14 11:16:57;;;;;;;5.18;1.48;;;;;;;;;;4993678;28;20338;-69
2023/06/14 11:19:23;;;;;;;3.97;1.20;;;;;;;;;;4995021;28;20455;-69
2023/06/14 11:21:50;;;;;;;3.13;1.10;;;;;;;;;;4995749;28;20037;-70
2023/06/14 11:24:17;;;;;;;6.25;1.20;;;;;;;;;;4993080;28;20440;-69
2023/06/14 11:26:43;;;;;;;5.25;1.40;;;;;;;;;;4994976;28;20601;-69
2023/06/14 11:29:09;;;;;;;4.88;1.40;;;;;;;;;;4991237;28;20471;-69
2023/06/14 11:31:35;;;;;;;6.90;1.40;;;;;;;;;;4993559;28;20164;-68
2023/06/14 11:34:01;;;;;;;3.85;1.08;;;;;;;;;;4989868;28;20124;-69
2023/06/14 11:36:31;;;;;;;4.72;1.30;;;;;;;;;;4995172;28;20033;-68
2023/06/14 11:39:06;;;;;;;3.92;1.20;;;;;;;;;;4992565;28;20025;-69
2023/06/14 11:41:35;;;;;;;5.97;1.00;;;;;;;;;;4993318;28;20609;-69
2023/06/14 11:44:02;;;;;;;5.65;1.30;;;;;;;;;;4992932;28;20510;-68
2023/06/14 11:46:28;;;;;;;3.97;1.48;;;;;;;;;;4994705;28;20749;-68
2023/06/14 11:48:55;;;;;;;4.10;1.30;;;;;;;;;;4995748;28;20025;-68
2023/06/14 11:51:21;;;;;;;6.35;1.65;;;;;;;;;;4991917;28;20256;-69
2023/06/14 11:53:47;;;;;;;4.20;1.60;;;;;;;;;;4989196;28;20030;-69
2023/06/14 11:56:14;;;;;;;4.10;1.23;;;;;;;;;;4988184;28;20494;-69
2023/06/14 11:58:40;;;;;;;10.52;1.40;;;;;;;;;;4996013;28;20035;-68
2023/06/14 12:01:06;;;;;;;5.28;1.45;;;;;;;;;;4990947;28;20438;-69
2023/06/14 12:03:32;;;;;;;4.20;1.20;;;;;;;;;;5012779;28;20072;-70
2023/06/14 12:06:08;;;;;;;6.43;1.23;;;;;;;;;;4996896;28;20033;-71
2023/06/14 12:08:41;;;;;;;4.18;1.38;;;;;;;;;;5016758;28;20037;-69
2023/06/14 12:11:14;;;;;;;4.75;1.48;;;;;;;;;;4995693;28;20201;-69
2023/06/14 12:13:40;;;;;;;3.65;1.40;;;;;;;;;;5017630;28;20013;-69
2023/06/14 12:16:08;;;;;;;4.13;1.52;;;;;;;;;;5013248;28;20036;-69
2023/06/14 12:18:35;;;;;;;4.20;1.30;;;;;;;;;;5018341;28;20040;-71
2023/06/14 12:21:02;;;;;;;5.50;1.30;;;;;;;;;;5012451;28;20543;-71
2023/06/14 12:23:39;;;;;;;5.35;1.67;;;;;;;;;;5016244;28;20017;-69
2023/06/14 12:26:05;;;;;;;4.82;1.75;;;;;;;;;;5011999;28;20562;-69
2023/06/14 12:28:32;;;;;;;5.00;1.30;;;;;;;;;;5015634;28;20024;-69
2023/06/14 12:30:58;;;;;;;4.55;1.35;;;;;;;;;;5012006;28;20786;-68
2023/06/14 12:33:25;;;;;;;4.68;1.50;;;;;;;;;;5016829;28;20021;-68
2023/06/14 12:35:52;;;;;;;4.45;1.45;;;;;;;;;;5002465;28;20408;-69
2023/06/14 12:38:18;;;;;;;6.13;1.77;;;;;;;;;;5012392;28;20029;-69
2023/06/14 12:40:44;;;;;;;6.15;1.92;;;;;;;;;;5022953;28;20155;-69
2023/06/14 12:43:10;;;;;;;4.35;1.35;;;;;;;;;;4999360;28;20033;-69
2023/06/14 12:45:36;;;;;;;3.97;1.30;;;;;;;;;;5021827;28;20560;-69
2023/06/14 12:48:02;;;;;;;5.00;1.20;;;;;;;;;;5003305;28;20025;-69
2023/06/14 12:50:29;;;;;;;3.13;1.00;;;;;;;;;;5022714;28;20068;-69
2023/06/14 12:52:55;;;;;;;2.92;1.30;;;;;;;;;;5003983;28;20147;-69
2023/06/14 12:55:21;;;;;;;3.90;1.13;;;;;;;;;;5021730;28;20025;-70
2023/06/14 12:57:49;;;;;;;3.92;1.30;;;;;;;;;;5003500;28;20182;-70
2023/06/14 13:00:17;;;;;;;3.28;1.40;;;;;;;;;;5016057;28;20033;-69
2023/06/14 13:02:43;;;;;;;5.70;1.38;;;;;;;;;;5020853;28;20434;-69
2023/06/14 13:05:09;;;;;;;4.55;1.80;;;;;;;;;;5004448;28;20028;-70
2023/06/14 13:07:35;;;;;;;6.05;1.83;;;;;;;;;;5023610;28;20037;-69
2023/06/14 13:10:01;;;;;;;6.03;1.85;;;;;;;;;;5018063;28;20032;-69
2023/06/14 13:12:27;;;;;;;4.93;1.50;;;;;;;;;;5022671;28;20668;-69
2023/06/14 13:14:54;;;;;;;5.55;1.73;;;;;;;;;;5020226;28;20016;-69
2023/06/14 13:17:20;;;;;;;4.65;1.80;;;;;;;;;;5018041;28;20235;-68
2023/06/14 13:19:46;;;;;;;5.82;2.28;;;;;;;;;;5006142;28;20717;-69
2023/06/14 13:22:12;;;;;;;9.70;3.13;;;;;;;;;;5017610;28;20067;-69
2023/06/14 13:24:38;;;;;;;7.07;1.90;;;;;;;;;;5018609;28;20944;-68
2023/06/14 13:27:05;;;;;;;4.72;1.70;;;;;;;;;;5018361;28;20087;-68
2023/06/14 13:29:32;;;;;;;6.30;1.85;;;;;;;;;;5019435;28;20577;-69
2023/06/14 13:31:58;;;;;;;4.32;1.40;;;;;;;;;;5018134;28;20033;-69
2023/06/14 13:34:25;;;;;;;6.78;1.85;;;;;;;;;;5020345;28;20573;-69
2023/06/14 13:36:51;;;;;;;3.97;1.42;;;;;;;;;;5022378;28;20049;-70
2023/06/14 13:39:17;;;;;;;11.77;2.00;;;;;;;;;;5000542;28;20448;-69
2023/06/14 13:41:43;;;;;;;7.20;1.88;;;;;;;;;;5019942;28;20122;-69
2023/06/14 13:44:13;;;;;;;6.20;1.50;;;;;;;;;;5000092;28;20572;-69
2023/06/14 13:46:40;;;;;;;6.93;1.63;;;;;;;;;;5005518;28;20032;-69
2023/06/14 13:49:06;;;;;;;11.65;2.58;;;;;;;;;;5000716;28;20032;-68
2023/06/14 13:51:33;;;;;;;6.00;1.60;;;;;;;;;;5021785;28;20024;-68
2023/06/14 13:53:59;;;;;;;4.50;1.65;;;;;;;;;;5017244;28;20722;-69
2023/06/14 13:56:25;;;;;;;4.63;1.70;;;;;;;;;;5017427;28;20029;-68
2023/06/14 13:58:54;;;;;;;3.50;1.40;;;;;;;;;;5017019;28;20041;-69
2023/06/14 14:01:20;;;;;;;5.80;1.60;;;;;;;;;;4998969;28;20631;-68
2023/06/14 14:03:47;;;;;;;6.03;1.77;;;;;;;;;;5018464;28;20049;-68
2023/06/14 14:06:13;;;;;;;11.68;2.15;;;;;;;;;;5000823;28;20722;-69
2023/06/14 14:08:40;;;;;;;10.75;2.33;;;;;;;;;;5018957;28;20398;-68
2023/06/14 14:11:07;;;;;;;6.13;1.67;;;;;;;;;;4995563;28;20032;-68
2023/06/14 14:13:35;;;;;;;8.23;2.40;;;;;;;;;;5020438;28;20353;-68
2023/06/14 14:16:02;;;;;;;5.72;1.80;;;;;;;;;;5013915;28;20124;-68
2023/06/14 14:18:28;;;;;;;6.28;1.80;;;;;;;;;;5022940;28;20132;-68
2023/06/14 14:20:54;;;;;;;5.03;1.80;;;;;;;;;;5002133;28;20512;-69
2023/06/14 14:23:21;;;;;;;5.13;1.70;;;;;;;;;;4989310;28;20041;-69
2023/06/14 14:25:47;;;;;;;4.93;1.83;;;;;;;;;;5009728;28;20321;-69
2023/06/14 14:28:15;;;;;;;6.70;2.13;;;;;;;;;;4995037;28;20287;-68
2023/06/14 14:30:41;;;;;;;5.18;1.70;;;;;;;;;;5014901;28;20111;-68
2023/06/14 14:33:08;;;;;;;6.03;1.90;;;;;;;;;;5000663;28;20654;-67
2023/06/14 14:35:34;;;;;;;12.07;2.90;;;;;;;;;;5020016;28;20064;-69
2023/06/14 14:38:00;;;;;;;8.52;2.50;;;;;;;;;;5015079;28;20048;-69
2023/06/14 14:40:26;;;;;;;6.70;2.00;;;;;;;;;;5005029;28;20231;-69